Time;durP1;ratioP1;P1;durP2;ratioP2;P2;SDS_P1;SDS_P2;PMS_P1;PMS_P2;Temp;Humidity;BMP_temperature;BMP_pressure;BME280_temperature;BME280_humidity;BME280_pressure;Samples;Min_cycle;Max_cycle;Signal;HPM_P1;HPM_P2
2021/06/16 00:02:24;;;;;;;3.40;3.10;;;;;;;39.38;47.49;161578.17;1733434;82;21272;-77
2021/06/16 00:04:56;;;;;;;3.55;3.25;;;;;;;39.29;47.39;161554.05;1735789;82;21344;-77
2021/06/16 00:07:29;;;;;;;4.10;3.67;;;;;;;39.29;47.39;161554.05;1736312;82;21824;-77
2021/06/16 00:10:01;;;;;;;4.75;3.52;;;;;;;39.31;47.46;161558.06;1736142;82;21218;-77
2021/06/16 00:12:34;;;;;;;4.67;3.67;;;;;;;39.26;47.53;161544.63;1735870;82;21209;-77
2021/06/16 00:15:11;;;;;;;3.92;3.52;;;;;;;39.26;47.32;161546.00;1735710;82;21288;-77
2021/06/16 00:17:43;;;;;;;3.92;3.58;;;;;;;39.26;47.32;161546.00;1735850;82;21206;-77
2021/06/16 00:20:16;;;;;;;7.00;4.15;;;;;;;39.24;47.50;161540.63;1735930;82;21223;-77
2021/06/16 00:22:48;;;;;;;4.42;3.45;;;;;;;39.23;47.50;161536.62;1735934;82;21265;-77
2021/06/16 00:25:20;;;;;;;3.98;3.33;;;;;;;39.20;47.53;161529.88;1735881;82;21272;-77
2021/06/16 00:27:54;;;;;;;6.28;3.70;;;;;;;39.17;47.56;161521.88;1736032;82;21757;-78
2021/06/16 00:30:27;;;;;;;4.80;3.50;;;;;;;39.12;47.54;161508.44;1706636;84;21320;-77
2021/06/16 00:33:00;;;;;;;4.65;3.50;;;;;;;39.12;47.54;161508.44;1698326;84;21233;-77
2021/06/16 00:35:32;;;;;;;3.85;3.45;;;;;;;39.15;47.60;161516.50;1716505;82;21309;-77
2021/06/16 00:38:05;;;;;;;3.92;3.45;;;;;;;39.13;47.67;161509.77;1735842;82;21249;-77
2021/06/16 00:40:37;;;;;;;3.90;3.27;;;;;;;39.15;47.60;161515.12;1726201;83;21222;-77
2021/06/16 00:43:09;;;;;;;3.95;3.55;;;;;;;39.07;47.71;161494.97;1706087;83;21369;-78
2021/06/16 00:45:41;;;;;;;4.53;3.70;;;;;;;39.09;47.72;161499.08;1726335;83;21364;-77
2021/06/16 00:48:14;;;;;;;4.55;4.00;;;;;;;39.11;47.66;161504.44;1726332;83;21437;-77
2021/06/16 00:50:46;;;;;;;3.40;3.10;;;;;;;39.08;47.72;161497.70;1726368;83;21317;-77
2021/06/16 00:53:18;;;;;;;3.92;3.52;;;;;;;39.02;47.83;161481.59;1726329;83;21337;-77
2021/06/16 00:55:51;;;;;;;3.62;3.33;;;;;;;38.96;47.98;161465.47;1726426;83;21330;-77
2021/06/16 00:58:23;;;;;;;3.90;3.50;;;;;;;38.96;48.03;161464.16;1741307;82;21407;-78
2021/06/16 01:01:06;;;;;;;3.90;3.50;;;;;;;38.99;48.08;161472.22;1743740;82;21222;-78
2021/06/16 01:04:15;;;;;;;4.12;3.70;;;;;;;38.99;48.08;161472.22;1740142;82;21266;-78
2021/06/16 01:06:57;;;;;;;3.50;3.20;;;;;;;39.02;48.07;161480.22;1735890;82;21186;-77
2021/06/16 01:09:52;;;;;;;4.97;3.67;;;;;;;39.06;47.93;161492.28;1736334;82;21197;-77
2021/06/16 01:12:31;;;;;;;4.37;3.90;;;;;;;39.08;47.84;161497.70;1706611;83;21340;-77
2021/06/16 01:15:13;;;;;;;4.40;3.87;;;;;;;39.14;47.66;161512.44;1678115;85;21205;-78
2021/06/16 01:17:52;;;;;;;4.08;3.67;;;;;;;39.10;47.68;161503.08;1696050;84;21397;-78
2021/06/16 01:20:35;;;;;;;4.12;3.72;;;;;;;39.12;47.60;161507.13;1706384;84;21335;-78
2021/06/16 01:23:27;;;;;;;4.28;3.65;;;;;;;39.08;47.59;161496.39;1696088;84;21381;-78
2021/06/16 01:26:07;;;;;;;4.20;3.52;;;;;;;39.05;47.61;161489.64;1728942;82;21274;-78
2021/06/16 01:28:43;;;;;;;5.00;4.20;;;;;;;38.99;47.68;161472.22;1736189;82;21851;-77
2021/06/16 01:31:19;;;;;;;4.22;3.83;;;;;;;38.92;47.83;161453.42;1736380;82;21871;-78
2021/06/16 01:33:52;;;;;;;3.87;3.52;;;;;;;38.94;47.81;161458.78;1712378;83;21812;-77
2021/06/16 01:36:26;;;;;;;4.25;3.85;;;;;;;38.95;47.76;161461.47;1734659;82;21190;-77
2021/06/16 01:38:58;;;;;;;4.50;3.98;;;;;;;38.88;47.92;161442.73;1736160;82;21324;-78
2021/06/16 01:41:31;;;;;;;4.58;4.10;;;;;;;38.95;47.76;161460.16;1735932;82;21166;-78
2021/06/16 01:44:03;;;;;;;4.25;3.72;;;;;;;38.94;47.77;161458.78;1736067;82;21178;-77
2021/06/16 01:46:36;;;;;;;4.03;3.58;;;;;;;38.90;47.85;161448.05;1735862;82;21166;-78
2021/06/16 01:49:10;;;;;;;3.83;3.52;;;;;;;38.87;47.95;161440.05;1735830;82;21277;-78
2021/06/16 01:51:43;;;;;;;5.37;4.40;;;;;;;38.79;48.17;161417.25;1736124;82;21194;-77
2021/06/16 01:54:17;;;;;;;4.33;3.92;;;;;;;38.78;48.21;161415.88;1734280;82;21840;-78
2021/06/16 01:56:49;;;;;;;4.15;3.77;;;;;;;38.76;48.30;161409.19;1733841;83;21669;-78
2021/06/16 01:59:21;;;;;;;3.52;3.22;;;;;;;38.77;48.34;161413.25;1733979;82;21361;-78
2021/06/16 02:01:55;;;;;;;5.10;3.85;;;;;;;38.77;48.34;161413.25;1733807;83;21198;-77
2021/06/16 02:04:27;;;;;;;4.05;3.45;;;;;;;38.86;48.19;161437.36;1734048;83;21361;-77
2021/06/16 02:07:18;;;;;;;4.40;4.00;;;;;;;38.82;48.24;161426.63;1708510;82;21195;-78
2021/06/16 02:09:50;;;;;;;4.28;3.75;;;;;;;38.86;48.18;161436.00;1733826;83;21440;-78
2021/06/16 02:12:23;;;;;;;4.47;3.98;;;;;;;38.80;48.29;161419.94;1733892;82;21368;-77
2021/06/16 02:14:59;;;;;;;4.15;3.75;;;;;;;38.77;48.30;161411.87;1733716;82;21185;-78
2021/06/16 02:17:32;;;;;;;5.30;4.00;;;;;;;38.73;48.36;161401.14;1733861;82;21859;-78
2021/06/16 02:20:06;;;;;;;4.95;4.08;;;;;;;38.67;48.44;161386.39;1733829;83;21472;-78
2021/06/16 02:22:39;;;;;;;4.30;3.90;;;;;;;38.64;48.52;161378.34;1735372;82;21685;-78
2021/06/16 02:25:12;;;;;;;4.75;3.98;;;;;;;38.65;48.45;161379.66;1736190;82;21800;-78
2021/06/16 02:27:44;;;;;;;6.47;4.17;;;;;;;38.65;48.46;161379.66;1736143;82;21185;-78
2021/06/16 02:30:18;;;;;;;4.03;3.72;;;;;;;38.68;48.35;161389.08;1735940;82;21201;-77
2021/06/16 02:32:50;;;;;;;4.45;3.90;;;;;;;38.64;48.38;161378.34;1736047;82;21796;-77
2021/06/16 02:35:23;;;;;;;8.40;4.03;;;;;;;38.69;48.31;161390.45;1735733;82;21194;-77
2021/06/16 02:38:03;;;;;;;4.83;4.00;;;;;;;38.68;48.25;161389.08;1736102;82;21215;-78
2021/06/16 02:40:36;;;;;;;4.12;3.72;;;;;;;38.62;48.37;161371.61;1734124;82;21205;-78
2021/06/16 02:43:09;;;;;;;4.95;4.05;;;;;;;38.60;48.41;161366.28;1707092;83;21191;-77
2021/06/16 02:45:42;;;;;;;6.03;3.65;;;;;;;38.56;48.48;161356.86;1724736;83;21231;-77
2021/06/16 02:48:14;;;;;;;4.40;4.00;;;;;;;38.61;48.46;161370.28;1720318;83;21171;-78
2021/06/16 02:50:48;;;;;;;6.67;3.90;;;;;;;38.77;48.13;161413.25;1681254;83;21349;-78
2021/06/16 02:53:23;;;;;;;4.97;4.20;;;;;;;38.84;47.93;161432.00;1691207;85;21535;-77
2021/06/16 02:56:00;;;;;;;4.10;3.67;;;;;;;38.85;47.83;161433.31;1726544;83;21334;-77
2021/06/16 02:58:35;;;;;;;4.70;4.00;;;;;;;38.89;47.70;161444.05;1734170;82;21243;-77
2021/06/16 03:01:09;;;;;;;4.37;3.98;;;;;;;38.86;47.76;161437.36;1726496;83;21321;-77
2021/06/16 03:03:50;;;;;;;4.65;3.90;;;;;;;38.86;47.73;161436.00;1742054;80;21163;-78
2021/06/16 03:06:23;;;;;;;5.57;4.60;;;;;;;38.78;47.88;161414.56;1772890;81;21229;-78
2021/06/16 03:08:57;;;;;;;4.97;4.37;;;;;;;38.74;48.04;161405.19;1771809;81;21159;-78
2021/06/16 03:11:31;;;;;;;4.53;4.12;;;;;;;38.74;48.04;161405.19;1771335;81;21281;-77
2021/06/16 03:14:04;;;;;;;5.78;4.78;;;;;;;38.66;48.09;161383.70;1762226;81;21369;-78
2021/06/16 03:16:36;;;;;;;4.58;4.15;;;;;;;38.77;47.96;161411.87;1771033;80;21233;-78
2021/06/16 03:19:08;;;;;;;4.83;4.33;;;;;;;38.80;47.93;161419.94;1768859;80;21753;-77
2021/06/16 03:21:40;;;;;;;4.37;3.98;;;;;;;38.79;47.93;161417.25;1771695;81;21222;-77
2021/06/16 03:24:13;;;;;;;5.37;3.98;;;;;;;38.79;47.93;161417.25;1711167;83;21214;-77
2021/06/16 03:26:46;;;;;;;5.58;4.35;;;;;;;38.76;47.97;161409.19;1734011;82;21788;-77
2021/06/16 03:29:20;;;;;;;4.87;4.30;;;;;;;38.76;48.01;161409.19;1734126;82;21769;-78
2021/06/16 03:31:52;;;;;;;6.62;4.47;;;;;;;38.70;48.08;161393.12;1736085;82;21257;-78
2021/06/16 03:34:25;;;;;;;6.53;4.70;;;;;;;38.70;48.08;161393.12;1735922;82;21185;-78
2021/06/16 03:36:57;;;;;;;4.90;4.22;;;;;;;38.72;48.19;161399.81;1735914;82;21214;-77
2021/06/16 03:39:30;;;;;;;5.00;4.50;;;;;;;38.73;48.23;161402.50;1735804;82;21170;-78
2021/06/16 03:42:03;;;;;;;4.87;4.37;;;;;;;38.73;48.24;161402.50;1735175;82;21186;-77
2021/06/16 03:44:36;;;;;;;4.92;4.25;;;;;;;38.73;48.29;161401.14;1733710;83;21333;-77
2021/06/16 03:47:08;;;;;;;4.83;4.33;;;;;;;38.80;48.19;161421.25;1735194;82;21173;-77
2021/06/16 03:49:43;;;;;;;6.22;4.58;;;;;;;38.78;48.18;161415.88;1735936;82;21217;-77
2021/06/16 03:52:16;;;;;;;5.08;4.58;;;;;;;38.78;48.23;161414.56;1735873;82;21193;-77
2021/06/16 03:54:48;;;;;;;5.08;4.58;;;;;;;38.81;48.16;161423.94;1735892;82;21180;-77
2021/06/16 03:57:21;;;;;;;4.87;4.37;;;;;;;38.81;48.10;161423.94;1735802;82;21174;-77
2021/06/16 03:59:53;;;;;;;6.62;4.75;;;;;;;38.78;48.20;161414.56;1736016;82;21241;-77
2021/06/16 04:02:25;;;;;;;5.35;4.50;;;;;;;38.79;48.18;161418.56;1735862;82;21182;-77
2021/06/16 04:05:07;;;;;;;5.35;4.37;;;;;;;38.80;48.13;161421.25;1734340;82;21864;-77
2021/06/16 04:07:39;;;;;;;5.70;4.83;;;;;;;38.78;48.13;161414.56;1733873;82;21694;-77
2021/06/16 04:10:12;;;;;;;5.30;4.72;;;;;;;38.79;48.14;161418.56;1733566;83;21466;-77
2021/06/16 04:12:47;;;;;;;6.20;5.05;;;;;;;38.93;47.83;161454.78;1685763;82;21213;-78
2021/06/16 04:15:20;;;;;;;5.40;4.90;;;;;;;38.91;47.84;161450.73;1733729;83;21323;-77
2021/06/16 04:17:53;;;;;;;5.47;4.78;;;;;;;38.93;47.77;161456.11;1727560;82;21380;-77
2021/06/16 04:20:27;;;;;;;7.42;4.87;;;;;;;39.00;47.52;161474.91;1726169;83;21890;-76
2021/06/16 04:22:59;;;;;;;7.22;5.97;;;;;;;38.91;47.67;161450.73;1726176;83;21325;-78
2021/06/16 04:25:31;;;;;;;6.28;5.15;;;;;;;38.81;47.89;161423.94;1726291;83;21325;-78
2021/06/16 04:28:04;;;;;;;6.47;5.47;;;;;;;38.73;48.08;161401.14;1726396;83;21413;-78
2021/06/16 04:30:36;;;;;;;6.83;4.83;;;;;;;38.72;48.10;161398.45;1726338;83;22480;-78
2021/06/16 04:33:09;;;;;;;5.17;4.67;;;;;;;38.73;48.10;161402.50;1726078;83;21194;-78
2021/06/16 04:35:41;;;;;;;8.40;5.37;;;;;;;38.77;48.00;161413.25;1726345;83;21377;-78
2021/06/16 04:38:14;;;;;;;5.87;5.00;;;;;;;38.67;48.15;161386.39;1726075;83;21199;-78
2021/06/16 04:40:47;;;;;;;5.83;5.17;;;;;;;38.56;48.34;161355.55;1726146;83;21321;-78
2021/06/16 04:43:19;;;;;;;6.80;5.42;;;;;;;38.50;48.47;161339.44;1726445;83;21338;-78
2021/06/16 04:45:51;;;;;;;5.80;5.00;;;;;;;38.53;48.46;161348.86;1726138;83;21187;-78
2021/06/16 04:48:24;;;;;;;5.45;4.95;;;;;;;38.51;48.51;161343.50;1726172;83;21286;-78
2021/06/16 04:50:56;;;;;;;5.70;5.17;;;;;;;38.56;48.39;161355.55;1726354;83;21317;-78
2021/06/16 04:53:28;;;;;;;6.35;5.42;;;;;;;38.58;48.36;161360.91;1726210;83;21365;-78
2021/06/16 04:56:01;;;;;;;7.00;5.53;;;;;;;38.53;48.43;161348.86;1726649;83;21782;-78
2021/06/16 04:58:33;;;;;;;5.80;5.17;;;;;;;38.53;48.44;161348.86;1726395;83;21413;-78
2021/06/16 05:01:05;;;;;;;8.83;5.75;;;;;;;38.52;48.46;161346.17;1726072;83;21214;-78
2021/06/16 05:03:38;;;;;;;5.67;5.17;;;;;;;38.51;48.51;161342.12;1726247;83;21833;-77
2021/06/16 05:06:11;;;;;;;5.95;5.00;;;;;;;38.55;48.45;161352.86;1726256;83;21376;-77
2021/06/16 05:08:43;;;;;;;7.87;5.67;;;;;;;38.70;48.19;161394.45;1726310;83;21369;-77
2021/06/16 05:11:15;;;;;;;6.65;5.00;;;;;;;38.74;48.04;161405.19;1726186;83;21388;-77
2021/06/16 05:13:48;;;;;;;6.83;5.10;;;;;;;38.78;47.92;161415.88;1726089;83;21356;-78
2021/06/16 05:16:20;;;;;;;6.05;4.80;;;;;;;38.78;47.88;161414.56;1726389;83;21827;-78
2021/06/16 05:18:53;;;;;;;5.65;4.67;;;;;;;38.74;47.95;161403.81;1733406;82;21230;-78
2021/06/16 05:21:28;;;;;;;5.40;4.53;;;;;;;38.59;48.24;161363.59;1744236;82;21204;-79
2021/06/16 05:24:01;;;;;;;5.60;4.75;;;;;;;38.53;48.42;161347.48;1722647;82;21324;-78
2021/06/16 05:26:33;;;;;;;6.65;5.47;;;;;;;38.52;48.47;161346.17;1734376;83;21190;-78
2021/06/16 05:29:07;;;;;;;4.90;4.40;;;;;;;38.53;48.49;161348.86;1734392;83;21233;-77
2021/06/16 05:31:39;;;;;;;7.03;4.85;;;;;;;38.68;48.26;161389.08;1734335;83;21694;-79
2021/06/16 05:34:12;;;;;;;5.72;5.12;;;;;;;38.78;47.94;161414.56;1734301;83;21245;-80
2021/06/16 05:36:45;;;;;;;7.40;5.03;;;;;;;38.78;47.94;161414.56;1734434;83;21705;-79
2021/06/16 05:39:17;;;;;;;5.30;4.80;;;;;;;38.77;47.94;161413.25;1734407;83;21245;-79
2021/06/16 05:41:50;;;;;;;6.53;4.80;;;;;;;38.77;47.94;161411.87;1734352;83;21170;-79
2021/06/16 05:44:22;;;;;;;6.12;4.90;;;;;;;38.71;48.04;161397.13;1734402;83;21163;-79
2021/06/16 05:46:54;;;;;;;5.17;4.67;;;;;;;38.70;48.10;161393.12;1734247;83;21225;-78
2021/06/16 05:49:27;;;;;;;5.60;5.10;;;;;;;38.78;48.16;161415.88;1734284;83;21190;-79
2021/06/16 05:52:00;;;;;;;5.53;4.92;;;;;;;38.88;48.00;161442.73;1734424;83;21277;-79
2021/06/16 05:54:32;;;;;;;5.45;4.95;;;;;;;38.89;48.03;161444.05;1734307;83;21202;-79
2021/06/16 05:57:05;;;;;;;5.55;4.55;;;;;;;38.89;48.10;161445.36;1734400;83;21167;-81
2021/06/16 05:59:37;;;;;;;5.22;4.72;;;;;;;38.95;48.10;161461.47;1734338;83;21229;-80
2021/06/16 06:02:09;;;;;;;6.75;4.67;;;;;;;38.98;48.03;161470.84;1734345;83;21167;-79
2021/06/16 06:04:42;;;;;;;7.35;4.45;;;;;;;39.03;47.95;161484.28;1734499;83;21161;-80
2021/06/16 06:07:14;;;;;;;5.87;4.72;;;;;;;39.13;47.90;161509.77;1734328;83;21225;-79
2021/06/16 06:09:47;;;;;;;5.87;5.30;;;;;;;39.19;47.79;161527.19;1734305;83;21671;-80
2021/06/16 06:12:21;;;;;;;5.95;4.87;;;;;;;39.22;47.75;161533.94;1734670;83;21499;-80
2021/06/16 06:14:54;;;;;;;6.08;4.47;;;;;;;39.24;47.67;161539.25;1734347;83;21293;-79
2021/06/16 06:17:26;;;;;;;5.55;4.33;;;;;;;39.22;47.80;161533.94;1734371;83;21701;-80
2021/06/16 06:19:59;;;;;;;5.78;4.67;;;;;;;39.21;47.87;161532.56;1727326;82;21215;-79
2021/06/16 06:22:31;;;;;;;6.75;4.45;;;;;;;39.17;48.02;161521.88;1723824;83;21369;-80
2021/06/16 06:25:05;;;;;;;5.03;4.53;;;;;;;39.51;47.41;161613.09;1725297;83;21694;-80
2021/06/16 06:27:38;;;;;;;5.00;4.00;;;;;;;39.61;47.22;161638.53;1726718;83;21191;-80
2021/06/16 06:30:11;;;;;;;7.17;5.00;;;;;;;39.39;47.53;161580.86;1726551;83;21325;-80
2021/06/16 06:32:44;;;;;;;5.67;4.67;;;;;;;39.36;47.72;161571.44;1726548;83;21630;-80
2021/06/16 06:35:16;;;;;;;4.90;4.50;;;;;;;39.37;47.78;161574.13;1726544;83;21380;-80
2021/06/16 06:37:48;;;;;;;5.30;4.08;;;;;;;39.34;47.76;161566.13;1726518;83;21361;-80
2021/06/16 06:40:21;;;;;;;6.72;3.77;;;;;;;39.36;47.82;161571.44;1726304;83;21242;-80
2021/06/16 06:42:53;;;;;;;4.15;3.55;;;;;;;39.37;47.93;161575.48;1726229;83;21408;-79
2021/06/16 06:45:26;;;;;;;4.70;3.87;;;;;;;39.36;47.92;161571.44;1726335;83;22013;-80
2021/06/16 06:47:58;;;;;;;6.20;4.05;;;;;;;39.38;47.94;161576.81;1706706;82;21203;-80
2021/06/16 06:50:31;;;;;;;5.08;3.90;;;;;;;39.51;47.71;161613.09;1726061;83;21377;-80
2021/06/16 06:53:03;;;;;;;6.85;5.05;;;;;;;39.52;47.68;161614.41;1726194;83;21233;-80
2021/06/16 06:55:37;;;;;;;6.72;4.08;;;;;;;39.51;47.74;161611.72;1726674;83;21210;-80
2021/06/16 06:58:10;;;;;;;4.25;3.75;;;;;;;39.51;47.74;161611.72;1726279;83;21369;-80
2021/06/16 07:00:42;;;;;;;3.87;3.58;;;;;;;39.52;47.55;161615.78;1726281;83;21325;-80
2021/06/16 07:03:14;;;;;;;5.85;3.95;;;;;;;39.52;47.55;161615.78;1726708;82;21821;-80
2021/06/16 07:05:46;;;;;;;4.03;3.62;;;;;;;39.49;47.81;161606.31;1726110;83;21246;-80
2021/06/16 07:08:18;;;;;;;4.47;4.08;;;;;;;39.56;47.72;161625.16;1726674;83;21364;-80
2021/06/16 07:10:51;;;;;;;4.72;4.00;;;;;;;39.60;47.58;161635.84;1726496;83;21373;-79
2021/06/16 07:13:23;;;;;;;4.35;3.95;;;;;;;39.51;48.09;161611.72;1726515;83;21380;-80
2021/06/16 07:15:57;;;;;;;3.67;3.37;;;;;;;39.51;48.09;161611.72;1723772;83;21238;-79
2021/06/16 07:18:31;;;;;;;4.22;3.52;;;;;;;39.44;47.99;161594.23;1726424;83;21828;-80
2021/06/16 07:21:04;;;;;;;4.75;3.42;;;;;;;39.49;47.88;161606.31;1728064;82;21238;-80
2021/06/16 07:23:37;;;;;;;5.87;3.75;;;;;;;39.47;47.92;161600.98;1735905;82;21210;-80
2021/06/16 07:26:09;;;;;;;4.53;3.55;;;;;;;39.48;47.91;161604.98;1734541;83;21234;-80
2021/06/16 07:28:43;;;;;;;3.75;3.45;;;;;;;39.61;47.65;161638.53;1734001;83;21170;-80
2021/06/16 07:31:15;;;;;;;5.92;3.67;;;;;;;39.68;47.45;161657.34;1734399;83;21285;-80
2021/06/16 07:33:48;;;;;;;4.05;3.65;;;;;;;39.70;47.42;161662.72;1734456;83;21690;-80
2021/06/16 07:36:21;;;;;;;5.28;3.83;;;;;;;39.60;47.57;161637.22;1734287;82;21183;-80
2021/06/16 07:38:53;;;;;;;4.03;3.52;;;;;;;39.59;47.65;161634.53;1734469;83;21266;-79
2021/06/16 07:41:27;;;;;;;3.90;3.50;;;;;;;39.61;47.62;161638.53;1734282;83;21205;-80
2021/06/16 07:44:00;;;;;;;3.20;2.90;;;;;;;39.61;47.62;161638.53;1734322;83;21170;-80
2021/06/16 07:46:32;;;;;;;3.80;3.50;;;;;;;39.67;47.67;161654.66;1734475;83;21661;-80
2021/06/16 07:49:05;;;;;;;5.33;3.42;;;;;;;39.72;47.64;161668.03;1734337;83;21190;-80
2021/06/16 07:51:37;;;;;;;4.37;3.70;;;;;;;39.74;47.66;161674.78;1734294;83;21235;-80
2021/06/16 07:54:16;;;;;;;5.00;3.72;;;;;;;39.70;47.73;161662.72;1734183;83;21205;-80
2021/06/16 07:56:44;;;;;;;4.15;3.77;;;;;;;39.80;47.61;161689.53;1734006;82;21179;-80
2021/06/16 07:59:19;;;;;;;3.60;3.30;;;;;;;39.83;47.52;161697.53;1734356;83;21197;-80
2021/06/16 08:01:51;;;;;;;3.40;3.10;;;;;;;39.82;47.60;161694.84;1734216;83;21203;-80
2021/06/16 08:04:24;;;;;;;5.80;4.05;;;;;;;39.85;47.53;161702.91;1734217;83;21678;-80
2021/06/16 08:06:57;;;;;;;4.60;3.20;;;;;;;39.95;47.32;161731.16;1734182;83;21234;-80
2021/06/16 08:09:30;;;;;;;3.83;3.20;;;;;;;39.88;47.39;161712.30;1734290;83;21198;-80
2021/06/16 08:12:03;;;;;;;5.37;3.42;;;;;;;39.89;47.37;161713.66;1734165;83;21325;-80
2021/06/16 08:14:37;;;;;;;3.42;3.05;;;;;;;39.94;47.35;161729.78;1734254;83;21229;-80
2021/06/16 08:17:09;;;;;;;3.95;3.30;;;;;;;39.92;47.52;161723.09;1734303;83;21269;-80
2021/06/16 08:19:42;;;;;;;4.20;3.55;;;;;;;39.93;47.63;161724.47;1734332;83;21262;-80
2021/06/16 08:22:15;;;;;;;6.17;3.47;;;;;;;39.99;47.72;161741.84;1734331;82;21210;-80
2021/06/16 08:24:47;;;;;;;3.40;3.10;;;;;;;40.03;47.93;161753.97;1734151;83;21443;-80
2021/06/16 08:27:19;;;;;;;3.42;3.12;;;;;;;40.15;48.00;161786.16;1731135;82;21978;-80
2021/06/16 08:29:52;;;;;;;4.53;3.25;;;;;;;40.25;47.94;161812.98;1726662;83;21369;-79
2021/06/16 08:32:24;;;;;;;3.50;3.20;;;;;;;40.35;47.69;161839.86;1726634;83;21821;-80
2021/06/16 08:34:56;;;;;;;4.90;2.90;;;;;;;40.45;47.55;161865.38;1705928;83;21357;-80
2021/06/16 08:37:29;;;;;;;4.62;3.05;;;;;;;40.52;47.28;161884.13;1726314;83;21392;-80
2021/06/16 08:40:01;;;;;;;5.83;2.80;;;;;;;40.46;47.26;161868.00;1726550;83;21837;-80
2021/06/16 08:42:34;;;;;;;2.87;2.62;;;;;;;40.53;46.62;161888.14;1727270;82;21813;-80
2021/06/16 08:45:07;;;;;;;3.70;2.90;;;;;;;40.53;46.62;161888.14;1727007;81;21773;-81
2021/06/16 08:47:41;;;;;;;3.83;2.80;;;;;;;40.63;46.31;161914.97;1746146;80;21537;-80
2021/06/16 08:50:14;;;;;;;3.85;3.10;;;;;;;40.78;45.84;161955.30;1753284;80;21722;-80
2021/06/16 08:52:47;;;;;;;4.10;2.98;;;;;;;40.80;45.59;161960.67;1759473;80;21623;-80
2021/06/16 08:55:20;;;;;;;3.15;2.70;;;;;;;40.77;45.35;161952.61;1749045;80;21361;-79
2021/06/16 08:57:52;;;;;;;3.60;2.58;;;;;;;40.78;45.24;161955.30;1747728;80;21222;-92
2021/06/16 09:00:24;;;;;;;3.45;3.15;;;;;;;40.77;45.08;161952.61;1747502;81;21724;-88
2021/06/16 09:02:57;;;;;;;3.40;2.60;;;;;;;40.77;45.08;161952.61;1768953;81;21225;-91
2021/06/16 09:05:41;;;;;;;4.50;3.10;;;;;;;40.88;44.45;161980.81;1760048;81;21221;-92
2021/06/16 09:08:23;;;;;;;2.98;2.50;;;;;;;41.00;44.65;162014.34;1750105;80;21312;-91
2021/06/16 09:10:57;;;;;;;2.87;2.20;;;;;;;41.07;44.66;162033.17;1771354;81;21178;-87
2021/06/16 09:13:32;;;;;;;4.72;2.33;;;;;;;41.03;44.10;162023.72;1757674;81;21348;-89
2021/06/16 09:16:07;;;;;;;2.92;2.33;;;;;;;41.04;43.46;162026.42;1749274;81;21162;-91
2021/06/16 09:18:46;;;;;;;4.10;2.47;;;;;;;41.03;43.27;162023.72;1758599;81;21852;-88
2021/06/16 09:21:39;;;;;;;2.65;2.00;;;;;;;41.12;42.35;162046.56;1770279;79;21195;-85
2021/06/16 09:24:11;;;;;;;3.08;2.17;;;;;;;41.17;42.00;162060.06;1763334;80;21370;-84
2021/06/16 09:26:45;;;;;;;2.20;1.80;;;;;;;41.27;41.58;162086.89;1739732;80;21348;-82
2021/06/16 09:29:29;;;;;;;5.92;2.00;;;;;;;41.39;41.16;162120.44;1769750;81;21309;-81
2021/06/16 09:32:05;;;;;;;2.12;1.92;;;;;;;41.47;40.92;162140.58;1770574;81;21250;-82
2021/06/16 09:34:37;;;;;;;2.87;1.98;;;;;;;41.53;41.23;162158.03;1741640;81;21190;-81
2021/06/16 09:37:10;;;;;;;2.33;1.65;;;;;;;41.58;41.35;162170.17;1748544;81;21214;-81
2021/06/16 09:39:42;;;;;;;2.02;1.85;;;;;;;41.54;41.40;162159.41;1761436;81;21164;-81
2021/06/16 09:42:14;;;;;;;2.20;1.82;;;;;;;41.54;41.76;162160.72;1735609;81;21319;-80
2021/06/16 09:44:50;;;;;;;2.00;1.80;;;;;;;41.58;41.89;162171.53;1752143;81;21309;-84
2021/06/16 09:47:25;;;;;;;2.75;1.80;;;;;;;41.67;41.61;162195.69;1740779;81;21321;-83
2021/06/16 09:50:02;;;;;;;5.85;1.85;;;;;;;41.74;41.60;162213.16;1744357;81;21307;-81
2021/06/16 09:52:43;;;;;;;5.05;2.05;;;;;;;41.80;41.41;162229.23;1731465;83;21356;-84
2021/06/16 09:55:28;;;;;;;2.83;2.12;;;;;;;41.85;40.87;162242.69;1770245;81;21281;-82
2021/06/16 09:58:11;;;;;;;2.92;1.80;;;;;;;41.88;40.66;162252.08;1762858;81;21168;-84
2021/06/16 10:00:49;;;;;;;3.02;1.80;;;;;;;41.94;40.70;162268.22;1771654;81;21207;-81
2021/06/16 10:03:24;;;;;;;5.00;2.00;;;;;;;41.97;40.57;162276.30;1753063;81;21311;-83
2021/06/16 10:06:15;;;;;;;3.67;1.65;;;;;;;41.91;39.91;162261.47;1768195;81;21297;-82
2021/06/16 10:08:55;;;;;;;2.70;2.17;;;;;;;41.93;39.74;162266.84;1774483;80;21718;-84
2021/06/16 10:11:26;;;;;;;1.80;1.70;;;;;;;41.95;39.70;162272.28;1758639;79;21231;-85
2021/06/16 10:13:57;;;;;;;1.50;1.40;;;;;;;41.83;39.79;162237.31;1757754;81;21273;-83
2021/06/16 10:16:30;;;;;;;2.00;1.50;;;;;;;41.82;39.51;162234.63;1751890;81;21317;-84
2021/06/16 10:19:03;;;;;;;2.02;1.32;;;;;;;41.80;38.94;162230.61;1753816;81;21387;-83
2021/06/16 10:21:35;;;;;;;1.70;1.35;;;;;;;41.84;38.74;162240.00;1744879;81;21309;-85
2021/06/16 10:24:09;;;;;;;3.20;1.70;;;;;;;41.96;38.94;162273.61;1743938;81;21210;-84
2021/06/16 10:26:42;;;;;;;3.45;1.40;;;;;;;42.17;38.54;162331.38;1735734;81;21329;-84
2021/06/16 10:29:16;;;;;;;2.40;1.52;;;;;;;42.24;38.30;162348.84;1747245;79;21254;-87
2021/06/16 10:32:02;;;;;;;2.02;1.40;;;;;;;42.36;38.03;162381.13;1749443;80;21377;-81
2021/06/16 10:34:56;;;;;;;2.17;1.30;;;;;;;42.46;37.52;162408.00;1746421;79;21440;-87
2021/06/16 10:37:41;;;;;;;2.00;1.17;;;;;;;42.54;37.42;162430.84;1744547;81;21163;-86
2021/06/16 10:40:27;;;;;;;1.95;1.50;;;;;;;42.65;37.18;162460.39;1757826;79;21420;-90
2021/06/16 10:43:20;;;;;;;1.77;1.45;;;;;;;42.85;36.98;162514.17;1757530;81;21369;-84
2021/06/16 10:46:12;;;;;;;2.55;1.52;;;;;;;42.89;36.74;162526.27;1741553;81;21194;-87
2021/06/16 10:48:56;;;;;;;5.80;1.40;;;;;;;43.00;36.87;162554.50;1744326;81;21155;-89
2021/06/16 10:51:40;;;;;;;1.52;1.42;;;;;;;43.04;36.96;162566.59;1748232;79;21194;-85
2021/06/16 10:54:19;;;;;;;1.95;1.60;;;;;;;43.06;36.86;162570.61;1763295;81;21361;-85
2021/06/16 10:57:01;;;;;;;2.58;1.40;;;;;;;42.99;36.92;162553.19;1750784;81;23142;-80
2021/06/16 10:59:58;;;;;;;3.25;1.72;;;;;;;43.02;36.92;162559.89;1749745;81;21325;-86
2021/06/16 11:02:47;;;;;;;1.47;1.37;;;;;;;43.08;36.61;162577.36;1748832;79;21884;-80
2021/06/16 11:05:29;;;;;;;4.70;1.50;;;;;;;43.12;36.47;162586.81;1767604;81;21281;-79
2021/06/16 11:08:03;;;;;;;1.70;1.15;;;;;;;43.09;36.67;162580.06;1752637;79;21856;-86
2021/06/16 11:10:57;;;;;;;1.92;1.60;;;;;;;43.09;36.57;162580.06;1752306;81;21376;-89
2021/06/16 11:13:38;;;;;;;1.72;1.40;;;;;;;43.00;36.60;162554.50;1750532;81;21804;-92
2021/06/16 11:16:51;;;;;;;2.05;1.20;;;;;;;43.03;36.61;162563.91;1747103;81;21420;-92
2021/06/16 11:19:37;;;;;;;3.80;1.27;;;;;;;43.06;36.68;162571.97;1749741;80;21357;-89
2021/06/16 11:22:17;;;;;;;1.67;1.20;;;;;;;43.11;36.65;162584.06;1751140;81;21218;-90
2021/06/16 11:25:29;;;;;;;2.05;1.20;;;;;;;43.26;36.26;162624.45;1738893;81;21265;-85
2021/06/16 11:28:08;;;;;;;3.17;1.60;;;;;;;43.31;35.90;162637.86;1742639;81;21365;-88
2021/06/16 11:31:02;;;;;;;1.35;1.25;;;;;;;43.39;35.47;162660.72;1754347;81;21647;-87
2021/06/16 11:33:38;;;;;;;2.00;1.20;;;;;;;43.42;35.46;162667.42;1745496;81;21195;-88
2021/06/16 11:36:27;;;;;;;2.98;1.42;;;;;;;43.38;35.11;162656.70;1750107;81;21369;-91
2021/06/16 11:38:58;;;;;;;1.35;1.25;;;;;;;43.40;35.14;162663.42;1743509;79;21360;-90
2021/06/16 11:41:31;;;;;;;1.77;1.22;;;;;;;43.38;35.46;162656.70;1749509;81;21207;-90
2021/06/16 11:44:11;;;;;;;1.87;1.20;;;;;;;43.36;35.60;162652.64;1746349;81;21159;-87
2021/06/16 11:46:45;;;;;;;;;;;;;;;43.43;35.37;162671.50;1749222;81;21325;-88
2021/06/16 11:49:25;;;;;;;1.52;1.42;;;;;;;43.31;35.43;162637.86;1748165;81;20626;-85
2021/06/16 11:52:02;;;;;;;1.60;1.30;;;;;;;43.33;35.38;162643.25;1747016;81;21356;-89
2021/06/16 11:54:43;;;;;;;2.42;1.32;;;;;;;43.39;35.35;162660.72;1750455;81;21202;-89
2021/06/16 11:57:18;;;;;;;5.00;1.30;;;;;;;43.37;35.38;162654.02;1742975;81;21353;-81
2021/06/16 11:59:52;;;;;;;3.50;1.27;;;;;;;43.31;35.06;162637.86;1744293;81;21372;-81
2021/06/16 12:02:27;;;;;;;1.82;1.30;;;;;;;43.31;34.87;162639.23;1746878;79;21238;-82